Glen Cove, Maine
Current Conditions -  °F | °C
As of 2:15 AM on Monday 22 Dec 2014 (Local Time) from KRKD Reporting Station
Overcast Overcast  
Wind Chill: 25°   Ceiling: 3500
Heat Index: 30°   Visibility: 10mi
Dew Point: 28°   Wind: 5mph
Humidity: 93%   Direction: 20°NNE
Pressure: 30.39"   Gusts: NA
Location:  44.13°N, 69.09°W
Report Text: KRKD 220715Z AUTO 02004KT 10SM OVC035 M01/M02 A3039 RMK AO1
Loading
Personal Weather Stations






























Interactive Weather Map New forecast layout! Learn more

10-Day Weather Forecast

Advertisements
Track Severe Weather on mobile